Time;durP1;ratioP1;P1;durP2;ratioP2;P2;SDS_P1;SDS_P2;PMS_P1;PMS_P2;Temp;Humidity;BMP_temperature;BMP_pressure;BME280_temperature;BME280_humidity;BME280_pressure;Samples;Min_cycle;Max_cycle;Signal;HPM_P1;HPM_P2
2023/04/14 00:00:18;;;;;;;1.55;0.75;;;;;;;;;;4962419;28;20495;-39
2023/04/14 00:02:43;;;;;;;1.60;0.77;;;;;;;;;;4964443;28;20483;-39
2023/04/14 00:05:09;;;;;;;1.35;1.00;;;;;;;;;;4963235;28;20066;-39
2023/04/14 00:07:34;;;;;;;1.45;0.90;;;;;;;;;;4963627;28;20030;-38
2023/04/14 00:10:00;;;;;;;1.65;0.70;;;;;;;;;;4964954;28;20027;-39
2023/04/14 00:12:25;;;;;;;1.48;0.80;;;;;;;;;;4945317;28;20078;-38
2023/04/14 00:14:51;;;;;;;0.57;0.50;;;;;;;;;;4948818;28;20100;-39
2023/04/14 00:17:16;;;;;;;1.95;0.70;;;;;;;;;;4948547;28;20504;-39
2023/04/14 00:19:41;;;;;;;0.90;0.63;;;;;;;;;;4949625;28;20023;-38
2023/04/14 00:22:07;;;;;;;0.70;0.60;;;;;;;;;;4950634;28;20106;-39
2023/04/14 00:24:39;;;;;;;1.38;0.77;;;;;;;;;;4946993;28;20037;-39
2023/04/14 00:27:05;;;;;;;1.10;0.90;;;;;;;;;;4950527;28;20500;-39
2023/04/14 00:29:30;;;;;;;2.03;0.82;;;;;;;;;;4949519;28;20042;-39
2023/04/14 00:31:55;;;;;;;1.13;0.85;;;;;;;;;;4950671;28;20051;-39
2023/04/14 00:34:21;;;;;;;2.00;1.13;;;;;;;;;;4950007;28;20439;-39
2023/04/14 00:36:46;;;;;;;2.55;0.70;;;;;;;;;;4948823;28;20039;-38
2023/04/14 00:39:11;;;;;;;3.25;1.08;;;;;;;;;;4950324;28;20034;-38
2023/04/14 00:41:37;;;;;;;1.20;1.10;;;;;;;;;;4949241;28;20062;-39
2023/04/14 00:44:02;;;;;;;0.90;0.90;;;;;;;;;;4950141;28;20053;-38
2023/04/14 00:46:28;;;;;;;3.65;1.10;;;;;;;;;;4947260;28;20142;-38
2023/04/14 00:48:55;;;;;;;1.00;0.90;;;;;;;;;;4951744;28;20035;-38
2023/04/14 00:51:21;;;;;;;2.05;0.90;;;;;;;;;;4948928;28;20039;-39
2023/04/14 00:53:48;;;;;;;2.50;1.08;;;;;;;;;;4949519;28;20042;-38
2023/04/14 00:56:14;;;;;;;1.13;0.85;;;;;;;;;;4950295;28;20051;-38
2023/04/14 00:58:40;;;;;;;1.05;0.90;;;;;;;;;;4949228;28;20042;-39
2023/04/14 01:01:05;;;;;;;2.33;0.82;;;;;;;;;;4958449;28;20122;-39
2023/04/14 01:03:31;;;;;;;1.08;0.75;;;;;;;;;;4963640;28;20616;-38
2023/04/14 01:05:56;;;;;;;2.95;0.77;;;;;;;;;;4965623;28;20054;-38
2023/04/14 01:08:23;;;;;;;2.63;0.80;;;;;;;;;;4964553;28;20080;-38
2023/04/14 01:11:14;;;;;;;0.70;0.70;;;;;;;;;;4966762;28;20042;-39
2023/04/14 01:14:00;;;;;;;1.00;0.90;;;;;;;;;;4966594;28;20065;-38
2023/04/14 01:16:30;;;;;;;1.85;1.08;;;;;;;;;;4965657;28;20038;-38
2023/04/14 01:19:23;;;;;;;0.75;0.50;;;;;;;;;;4965149;28;20065;-39
2023/04/14 01:21:53;;;;;;;4.20;0.70;;;;;;;;;;4965667;28;20039;-39
2023/04/14 01:24:27;;;;;;;1.75;0.90;;;;;;;;;;4961718;28;20027;-39
2023/04/14 01:27:28;;;;;;;2.10;0.80;;;;;;;;;;4966176;28;20057;-39
2023/04/14 01:30:05;;;;;;;0.80;0.50;;;;;;;;;;4956699;28;20047;-39
2023/04/14 01:32:34;;;;;;;1.40;0.70;;;;;;;;;;4951272;28;20054;-38
2023/04/14 01:35:07;;;;;;;1.73;0.85;;;;;;;;;;4955437;28;20047;-38
2023/04/14 01:37:35;;;;;;;1.40;1.10;;;;;;;;;;4957349;28;20544;-39
2023/04/14 01:40:10;;;;;;;0.75;0.75;;;;;;;;;;4951313;28;20035;-39
2023/04/14 01:42:38;;;;;;;0.70;0.70;;;;;;;;;;4952210;28;20346;-39
2023/04/14 01:45:09;;;;;;;0.95;0.63;;;;;;;;;;4954219;28;20047;-38
2023/04/14 01:47:35;;;;;;;0.70;0.50;;;;;;;;;;4952851;28;20031;-38
2023/04/14 01:50:03;;;;;;;1.92;0.50;;;;;;;;;;4955234;28;20478;-38
2023/04/14 01:52:29;;;;;;;1.45;0.75;;;;;;;;;;4952902;28;20047;-39
2023/04/14 01:54:56;;;;;;;1.42;0.70;;;;;;;;;;4948110;28;20038;-38
2023/04/14 01:57:24;;;;;;;0.98;0.68;;;;;;;;;;4948282;28;20039;-40
2023/04/14 01:59:52;;;;;;;0.70;0.70;;;;;;;;;;4949410;28;20421;-38
2023/04/14 02:02:19;;;;;;;1.02;0.70;;;;;;;;;;4949434;28;20564;-38
2023/04/14 02:04:46;;;;;;;0.52;0.52;;;;;;;;;;4952771;28;20189;-38
2023/04/14 02:07:12;;;;;;;1.75;0.70;;;;;;;;;;4958847;28;20054;-39
2023/04/14 02:09:41;;;;;;;2.53;0.70;;;;;;;;;;4966260;28;20492;-39
2023/04/14 02:12:08;;;;;;;0.90;0.50;;;;;;;;;;4964419;28;20583;-41
2023/04/14 02:14:35;;;;;;;4.18;0.90;;;;;;;;;;4963488;28;20121;-39
2023/04/14 02:17:01;;;;;;;1.52;0.65;;;;;;;;;;4965636;28;20077;-38
2023/04/14 02:19:28;;;;;;;1.25;0.70;;;;;;;;;;4964157;28;20035;-39
2023/04/14 02:21:55;;;;;;;0.50;0.50;;;;;;;;;;4964953;28;20074;-39
2023/04/14 02:24:22;;;;;;;0.70;0.70;;;;;;;;;;4965779;28;20031;-40
2023/04/14 02:26:54;;;;;;;0.93;0.60;;;;;;;;;;4962701;28;20403;-39
2023/04/14 02:29:21;;;;;;;0.85;0.57;;;;;;;;;;4965441;28;20053;-39
2023/04/14 02:31:58;;;;;;;0.88;0.57;;;;;;;;;;4963087;28;20145;-38
2023/04/14 02:34:28;;;;;;;0.77;0.60;;;;;;;;;;4966364;28;20027;-39
2023/04/14 02:36:56;;;;;;;0.43;0.43;;;;;;;;;;4962478;28;20144;-38
2023/04/14 02:39:30;;;;;;;5.63;0.85;;;;;;;;;;4965143;28;20038;-39
2023/04/14 02:42:13;;;;;;;0.98;0.60;;;;;;;;;;4962898;28;20088;-39
2023/04/14 02:44:46;;;;;;;1.25;0.50;;;;;;;;;;4965571;28;20042;-39
2023/04/14 02:47:27;;;;;;;1.05;0.55;;;;;;;;;;4967274;28;20038;-39
2023/04/14 02:49:55;;;;;;;1.38;0.50;;;;;;;;;;4966071;28;20391;-39
2023/04/14 02:52:25;;;;;;;0.47;0.47;;;;;;;;;;4965306;28;20042;-39
2023/04/14 02:54:52;;;;;;;0.88;0.65;;;;;;;;;;4959169;28;20031;-39
2023/04/14 02:57:18;;;;;;;1.58;0.93;;;;;;;;;;4960626;28;20051;-39
2023/04/14 02:59:45;;;;;;;0.60;0.60;;;;;;;;;;4967054;28;20034;-39
2023/04/14 03:02:11;;;;;;;2.83;0.52;;;;;;;;;;4960633;28;20142;-39
2023/04/14 03:04:38;;;;;;;0.50;0.50;;;;;;;;;;4962483;28;20073;-39
2023/04/14 03:07:14;;;;;;;0.60;0.55;;;;;;;;;;4964864;28;20050;-39
2023/04/14 03:09:41;;;;;;;0.47;0.47;;;;;;;;;;4957900;28;20031;-38
2023/04/14 03:12:06;;;;;;;0.57;0.38;;;;;;;;;;4965409;28;20070;-38
2023/04/14 03:14:34;;;;;;;1.40;0.80;;;;;;;;;;4964521;28;20035;-38
2023/04/14 03:17:00;;;;;;;0.70;0.60;;;;;;;;;;4963771;28;20045;-38
2023/04/14 03:19:27;;;;;;;1.20;0.50;;;;;;;;;;4967881;28;20035;-38
2023/04/14 03:21:54;;;;;;;1.88;0.80;;;;;;;;;;4957973;28;20506;-39
2023/04/14 03:24:23;;;;;;;0.82;0.63;;;;;;;;;;4961039;28;20046;-38
2023/04/14 03:27:00;;;;;;;1.40;0.60;;;;;;;;;;4961152;28;20046;-38
2023/04/14 03:29:29;;;;;;;1.00;0.55;;;;;;;;;;4961541;28;20399;-38
2023/04/14 03:31:56;;;;;;;3.63;0.70;;;;;;;;;;4964278;28;20047;-39
2023/04/14 03:34:24;;;;;;;1.13;0.77;;;;;;;;;;4964659;28;20084;-39
2023/04/14 03:36:53;;;;;;;1.58;0.70;;;;;;;;;;4963398;28;20035;-38
2023/04/14 03:39:21;;;;;;;0.77;0.77;;;;;;;;;;4959541;28;20026;-39
2023/04/14 03:41:50;;;;;;;0.82;0.70;;;;;;;;;;4962240;28;20094;-38
2023/04/14 03:44:17;;;;;;;0.65;0.65;;;;;;;;;;4961147;28;20049;-39
2023/04/14 03:46:43;;;;;;;0.70;0.70;;;;;;;;;;4961595;28;20050;-38
2023/04/14 03:49:11;;;;;;;6.07;0.98;;;;;;;;;;4949612;28;20412;-39
2023/04/14 03:51:38;;;;;;;0.60;0.60;;;;;;;;;;4959048;28;20440;-39
2023/04/14 03:54:05;;;;;;;1.75;0.70;;;;;;;;;;4964219;28;20042;-39
2023/04/14 03:56:33;;;;;;;0.60;0.60;;;;;;;;;;4968708;28;20089;-38
2023/04/14 03:59:00;;;;;;;0.50;0.50;;;;;;;;;;4969367;28;20031;-38
2023/04/14 04:01:26;;;;;;;1.23;0.68;;;;;;;;;;4965642;28;20050;-39
2023/04/14 04:03:53;;;;;;;1.27;0.70;;;;;;;;;;4963975;28;20062;-38
2023/04/14 04:06:19;;;;;;;2.67;0.80;;;;;;;;;;4965108;28;20042;-39
2023/04/14 04:08:47;;;;;;;0.55;0.47;;;;;;;;;;4963624;28;20109;-38
2023/04/14 04:11:17;;;;;;;0.50;0.50;;;;;;;;;;4969280;28;22989;-39
2023/04/14 04:13:46;;;;;;;0.60;0.50;;;;;;;;;;4967706;28;20055;-38
2023/04/14 04:16:12;;;;;;;1.20;0.60;;;;;;;;;;4963316;28;20246;-39
2023/04/14 04:18:38;;;;;;;2.33;0.57;;;;;;;;;;4967455;28;20037;-39
2023/04/14 04:21:05;;;;;;;0.60;0.60;;;;;;;;;;4968703;28;20130;-39
2023/04/14 04:23:32;;;;;;;1.58;0.60;;;;;;;;;;4967303;28;20065;-39
2023/04/14 04:25:58;;;;;;;1.80;0.60;;;;;;;;;;4967363;28;20067;-39
2023/04/14 04:28:23;;;;;;;1.35;0.60;;;;;;;;;;4966329;28;20111;-39
2023/04/14 04:30:51;;;;;;;0.77;0.60;;;;;;;;;;4969028;28;20043;-38
2023/04/14 04:33:17;;;;;;;0.90;0.50;;;;;;;;;;4966073;28;20070;-39
2023/04/14 04:35:44;;;;;;;4.25;0.65;;;;;;;;;;4964153;28;20043;-38
2023/04/14 04:38:10;;;;;;;0.98;0.55;;;;;;;;;;4967489;28;20019;-39
2023/04/14 04:40:37;;;;;;;0.40;0.40;;;;;;;;;;4967429;28;20047;-39
2023/04/14 04:43:03;;;;;;;1.33;0.55;;;;;;;;;;4968768;28;20739;-38
2023/04/14 04:45:44;;;;;;;1.38;0.57;;;;;;;;;;4966747;28;20047;-39
2023/04/14 04:48:10;;;;;;;2.42;0.75;;;;;;;;;;4958279;28;20130;-38
2023/04/14 04:50:35;;;;;;;0.50;0.50;;;;;;;;;;4966821;28;20567;-39
2023/04/14 04:53:00;;;;;;;1.55;0.50;;;;;;;;;;4968538;28;20033;-39
2023/04/14 04:55:26;;;;;;;0.55;0.50;;;;;;;;;;4966092;28;20511;-38
2023/04/14 04:57:51;;;;;;;1.10;0.52;;;;;;;;;;4962203;28;20047;-39
2023/04/14 05:00:17;;;;;;;0.77;0.60;;;;;;;;;;4962109;28;20034;-39
2023/04/14 05:02:42;;;;;;;0.82;0.68;;;;;;;;;;4969088;28;20039;-38
2023/04/14 05:05:08;;;;;;;1.42;0.80;;;;;;;;;;4968378;28;20372;-38
2023/04/14 05:07:34;;;;;;;0.80;0.80;;;;;;;;;;4967510;28;20062;-38
2023/04/14 05:09:59;;;;;;;0.93;0.52;;;;;;;;;;4962004;28;20037;-38
2023/04/14 05:12:25;;;;;;;1.55;0.80;;;;;;;;;;4962572;28;20050;-38
2023/04/14 05:14:50;;;;;;;0.75;0.63;;;;;;;;;;4964217;28;20037;-41
2023/04/14 05:17:15;;;;;;;0.50;0.50;;;;;;;;;;4961979;28;20073;-38
2023/04/14 05:19:41;;;;;;;0.95;0.73;;;;;;;;;;4963041;28;20027;-39
2023/04/14 05:22:06;;;;;;;1.33;0.47;;;;;;;;;;4968027;28;20038;-39
2023/04/14 05:24:31;;;;;;;0.82;0.82;;;;;;;;;;4967022;28;20392;-39
2023/04/14 05:26:57;;;;;;;0.85;0.63;;;;;;;;;;4958760;28;20069;-39
2023/04/14 05:29:22;;;;;;;1.85;0.70;;;;;;;;;;4965580;28;20030;-39
2023/04/14 05:31:47;;;;;;;0.82;0.80;;;;;;;;;;4963708;28;20081;-38
2023/04/14 05:34:13;;;;;;;2.40;0.60;;;;;;;;;;4966476;28;20085;-38
2023/04/14 05:36:39;;;;;;;2.88;0.57;;;;;;;;;;4966283;28;20563;-39
2023/04/14 05:39:05;;;;;;;0.63;0.50;;;;;;;;;;4962244;28;20122;-39
2023/04/14 05:41:30;;;;;;;0.43;0.43;;;;;;;;;;4963976;28;20050;-38
2023/04/14 05:43:55;;;;;;;1.23;0.63;;;;;;;;;;4962267;28;20034;-39
2023/04/14 05:46:21;;;;;;;3.97;0.50;;;;;;;;;;4960508;28;20057;-39
2023/04/14 05:48:46;;;;;;;0.60;0.60;;;;;;;;;;4963394;28;20403;-38
2023/04/14 05:51:11;;;;;;;0.70;0.70;;;;;;;;;;4963586;28;20042;-39
2023/04/14 05:53:37;;;;;;;3.15;0.80;;;;;;;;;;4961971;28;20093;-38
2023/04/14 05:56:02;;;;;;;2.17;0.68;;;;;;;;;;4967753;28;20098;-38
2023/04/14 05:58:28;;;;;;;3.47;1.55;;;;;;;;;;4964528;28;20030;-39
2023/04/14 06:00:53;;;;;;;1.60;0.80;;;;;;;;;;4961405;28;20045;-39
2023/04/14 06:03:18;;;;;;;0.30;0.30;;;;;;;;;;4963905;28;20102;-38
2023/04/14 06:05:46;;;;;;;0.60;0.60;;;;;;;;;;4965299;28;20043;-38
2023/04/14 06:08:12;;;;;;;0.50;0.50;;;;;;;;;;4962257;28;20637;-38
2023/04/14 06:10:37;;;;;;;0.57;0.40;;;;;;;;;;4962250;28;20062;-40
2023/04/14 06:13:03;;;;;;;0.75;0.63;;;;;;;;;;4959064;28;20041;-40
2023/04/14 06:15:28;;;;;;;0.98;0.60;;;;;;;;;;4960382;28;20053;-37
2023/04/14 06:17:54;;;;;;;1.95;0.90;;;;;;;;;;4964740;28;20023;-39
2023/04/14 06:20:20;;;;;;;2.28;1.10;;;;;;;;;;4960713;28;20441;-38
2023/04/14 06:22:46;;;;;;;4.10;0.65;;;;;;;;;;4963456;28;20031;-38
2023/04/14 06:25:11;;;;;;;2.00;0.77;;;;;;;;;;4961460;28;20447;-38
2023/04/14 06:27:37;;;;;;;1.10;0.70;;;;;;;;;;4964001;28;20042;-38
2023/04/14 06:30:03;;;;;;;0.40;0.40;;;;;;;;;;4967014;28;20031;-38
2023/04/14 06:32:29;;;;;;;2.35;0.50;;;;;;;;;;4962207;28;20043;-39
2023/04/14 06:34:54;;;;;;;6.65;0.60;;;;;;;;;;4966205;28;20038;-39
2023/04/14 06:37:20;;;;;;;1.10;0.60;;;;;;;;;;4961977;28;20039;-38
2023/04/14 06:39:45;;;;;;;0.98;0.40;;;;;;;;;;4959600;28;20038;-38
2023/04/14 06:42:12;;;;;;;0.95;0.57;;;;;;;;;;4967249;28;20054;-38
2023/04/14 06:44:40;;;;;;;0.52;0.50;;;;;;;;;;4959630;28;20030;-39
2023/04/14 06:47:06;;;;;;;0.40;0.40;;;;;;;;;;4964436;28;20683;-38
2023/04/14 06:49:31;;;;;;;0.55;0.30;;;;;;;;;;4964897;28;20023;-39
2023/04/14 06:51:57;;;;;;;0.55;0.50;;;;;;;;;;4961584;28;20369;-38
2023/04/14 06:54:22;;;;;;;0.95;0.47;;;;;;;;;;4961725;28;20057;-38
2023/04/14 06:56:48;;;;;;;6.15;0.60;;;;;;;;;;4964369;28;20046;-38
2023/04/14 06:59:13;;;;;;;0.93;0.57;;;;;;;;;;4964606;28;20024;-39
2023/04/14 07:01:38;;;;;;;0.32;0.32;;;;;;;;;;4962759;28;20035;-39
2023/04/14 07:04:04;;;;;;;0.50;0.50;;;;;;;;;;4965060;28;20491;-39
2023/04/14 07:06:30;;;;;;;0.65;0.60;;;;;;;;;;4966353;28;20046;-38
2023/04/14 07:08:55;;;;;;;5.53;2.70;;;;;;;;;;4959134;28;20038;-39
2023/04/14 07:11:21;;;;;;;1.45;1.17;;;;;;;;;;4963623;28;20097;-38
2023/04/14 07:13:46;;;;;;;3.08;0.85;;;;;;;;;;4964914;28;20042;-39
2023/04/14 07:16:11;;;;;;;6.72;2.67;;;;;;;;;;4961522;28;20051;-39
2023/04/14 07:18:37;;;;;;;4.57;1.95;;;;;;;;;;4963993;28;20380;-39
2023/04/14 07:21:02;;;;;;;2.38;1.50;;;;;;;;;;4956875;28;20043;-38
2023/04/14 07:23:28;;;;;;;1.92;1.20;;;;;;;;;;4946013;28;20035;-39
2023/04/14 07:25:57;;;;;;;5.30;1.10;;;;;;;;;;4950129;28;20039;-39
2023/04/14 07:28:24;;;;;;;2.30;1.30;;;;;;;;;;4950267;28;23443;-38
2023/04/14 07:30:51;;;;;;;1.65;1.08;;;;;;;;;;4946368;28;20051;-38
2023/04/14 07:33:18;;;;;;;1.45;0.90;;;;;;;;;;4948308;28;20031;-39
2023/04/14 07:35:51;;;;;;;4.60;0.98;;;;;;;;;;4951407;28;20047;-38
2023/04/14 07:38:17;;;;;;;2.15;1.05;;;;;;;;;;4944939;29;20038;-38
2023/04/14 07:40:42;;;;;;;1.20;0.70;;;;;;;;;;4947809;28;20757;-39
2023/04/14 07:43:08;;;;;;;1.50;1.33;;;;;;;;;;4946802;28;20050;-38
2023/04/14 07:45:33;;;;;;;5.28;0.90;;;;;;;;;;4955216;28;20189;-39
2023/04/14 07:47:58;;;;;;;0.63;0.63;;;;;;;;;;4968028;28;20023;-39
2023/04/14 07:50:24;;;;;;;1.70;0.80;;;;;;;;;;4969486;28;20054;-38
2023/04/14 07:52:50;;;;;;;2.65;1.13;;;;;;;;;;4970024;28;20031;-39
2023/04/14 07:55:15;;;;;;;2.45;0.90;;;;;;;;;;4965945;28;20383;-39
2023/04/14 07:57:41;;;;;;;2.05;0.90;;;;;;;;;;4970047;28;20019;-43
2023/04/14 08:00:08;;;;;;;1.95;0.90;;;;;;;;;;4967189;28;20034;-38
2023/04/14 08:02:34;;;;;;;3.25;0.90;;;;;;;;;;4967501;28;20411;-38
2023/04/14 08:04:59;;;;;;;4.38;1.10;;;;;;;;;;4969162;28;20038;-39
2023/04/14 08:07:27;;;;;;;4.55;0.80;;;;;;;;;;4967436;28;20043;-39
2023/04/14 08:09:53;;;;;;;0.85;0.82;;;;;;;;;;4967292;28;20034;-39
2023/04/14 08:12:18;;;;;;;1.20;0.90;;;;;;;;;;4968986;28;20043;-40
2023/04/14 08:14:44;;;;;;;3.78;1.02;;;;;;;;;;4969179;28;20065;-39
2023/04/14 08:17:09;;;;;;;1.15;1.02;;;;;;;;;;4966996;28;20139;-39
2023/04/14 08:19:35;;;;;;;4.05;2.13;;;;;;;;;;4965552;28;20023;-39
2023/04/14 08:22:01;;;;;;;3.60;0.90;;;;;;;;;;4965797;28;20050;-39
2023/04/14 08:24:26;;;;;;;2.83;0.68;;;;;;;;;;4965775;28;20416;-39
2023/04/14 08:26:53;;;;;;;3.70;0.90;;;;;;;;;;4966522;28;20058;-40
2023/04/14 08:29:20;;;;;;;2.47;1.13;;;;;;;;;;4967891;28;20027;-39
2023/04/14 08:31:45;;;;;;;1.85;1.30;;;;;;;;;;4969023;28;20504;-39
2023/04/14 08:34:10;;;;;;;3.88;0.60;;;;;;;;;;4963653;28;20046;-39
2023/04/14 08:36:36;;;;;;;0.98;0.75;;;;;;;;;;4970563;28;20393;-39
2023/04/14 08:39:02;;;;;;;2.92;0.80;;;;;;;;;;4967684;28;20037;-39
2023/04/14 08:41:32;;;;;;;1.50;0.85;;;;;;;;;;4965233;28;20083;-38
2023/04/14 08:43:57;;;;;;;1.20;0.70;;;;;;;;;;4965822;28;20395;-39
2023/04/14 08:46:25;;;;;;;0.77;0.77;;;;;;;;;;4967534;28;20057;-38
2023/04/14 08:48:57;;;;;;;1.73;0.80;;;;;;;;;;4962859;28;20038;-39
2023/04/14 08:51:38;;;;;;;7.85;0.73;;;;;;;;;;4963802;28;20062;-39
2023/04/14 08:54:08;;;;;;;1.88;0.68;;;;;;;;;;4965490;28;20043;-39
2023/04/14 08:56:37;;;;;;;0.70;0.70;;;;;;;;;;4964548;28;20042;-39
2023/04/14 08:59:05;;;;;;;2.70;0.57;;;;;;;;;;4963319;28;20149;-39
2023/04/14 09:01:35;;;;;;;1.52;0.60;;;;;;;;;;4964976;28;20046;-39
2023/04/14 09:04:04;;;;;;;2.83;0.60;;;;;;;;;;4968366;28;20027;-39
2023/04/14 09:06:30;;;;;;;0.68;0.60;;;;;;;;;;4970157;28;20050;-39
2023/04/14 09:09:04;;;;;;;3.90;0.50;;;;;;;;;;4965847;28;20513;-39
2023/04/14 09:11:30;;;;;;;0.68;0.68;;;;;;;;;;4961016;28;20043;-39
2023/04/14 09:13:57;;;;;;;1.95;0.82;;;;;;;;;;4966573;28;20070;-39
2023/04/14 09:16:25;;;;;;;0.93;0.57;;;;;;;;;;4962120;28;20203;-39
2023/04/14 09:18:51;;;;;;;1.92;0.60;;;;;;;;;;4967549;28;20053;-41
2023/04/14 09:21:17;;;;;;;1.33;0.60;;;;;;;;;;4962215;28;20106;-39
2023/04/14 09:23:43;;;;;;;1.52;0.65;;;;;;;;;;4968595;28;20026;-39
2023/04/14 09:26:09;;;;;;;2.85;0.60;;;;;;;;;;4967927;28;20047;-39
2023/04/14 09:28:35;;;;;;;2.83;0.57;;;;;;;;;;4966467;28;20030;-39
2023/04/14 09:31:01;;;;;;;0.75;0.55;;;;;;;;;;4964761;28;20398;-39
2023/04/14 09:33:27;;;;;;;1.25;0.82;;;;;;;;;;4966574;28;20045;-39
2023/04/14 09:35:53;;;;;;;5.53;1.00;;;;;;;;;;4965357;28;20039;-39
2023/04/14 09:38:32;;;;;;;0.85;0.82;;;;;;;;;;4964959;28;20502;-39
2023/04/14 09:40:57;;;;;;;2.50;0.90;;;;;;;;;;4964553;28;20043;-39
2023/04/14 09:43:25;;;;;;;1.05;0.77;;;;;;;;;;4967920;28;20042;-39
2023/04/14 09:45:51;;;;;;;0.93;0.50;;;;;;;;;;4960628;28;20129;-40
2023/04/14 09:48:17;;;;;;;1.10;1.00;;;;;;;;;;4965271;28;20497;-39
2023/04/14 09:51:05;;;;;;;1.55;0.63;;;;;;;;;;4967725;28;20518;-39
2023/04/14 09:53:33;;;;;;;5.50;0.77;;;;;;;;;;4965333;28;20185;-39
2023/04/14 09:56:01;;;;;;;1.20;0.75;;;;;;;;;;4961685;28;20043;-39
2023/04/14 09:58:43;;;;;;;0.93;0.77;;;;;;;;;;4966842;28;20027;-39
2023/04/14 10:01:11;;;;;;;;;;;;;;;;;;4966610;28;20059;-40
2023/04/14 10:03:42;;;;;;;7.47;0.80;;;;;;;;;;4962964;28;19922;-39
2023/04/14 10:06:09;;;;;;;3.95;0.60;;;;;;;;;;4966076;28;20050;-39
2023/04/14 10:08:40;;;;;;;1.15;0.88;;;;;;;;;;4966757;28;20065;-39
2023/04/14 10:11:18;;;;;;;2.00;0.47;;;;;;;;;;4965567;28;20039;-39
2023/04/14 10:13:45;;;;;;;0.45;0.45;;;;;;;;;;4965725;28;20089;-39
2023/04/14 10:16:10;;;;;;;0.85;0.50;;;;;;;;;;4964392;28;20047;-39
2023/04/14 10:18:36;;;;;;;4.57;0.70;;;;;;;;;;4962695;28;20048;-40
2023/04/14 10:21:02;;;;;;;0.75;0.52;;;;;;;;;;4963449;28;20407;-39
2023/04/14 10:23:30;;;;;;;0.85;0.40;;;;;;;;;;4965952;28;20042;-39
2023/04/14 10:25:55;;;;;;;0.57;0.45;;;;;;;;;;4959110;28;20416;-39
2023/04/14 10:28:23;;;;;;;1.42;0.35;;;;;;;;;;4963712;28;20043;-39
2023/04/14 10:30:51;;;;;;;1.17;0.45;;;;;;;;;;4958421;28;20036;-39
2023/04/14 10:33:17;;;;;;;2.40;0.50;;;;;;;;;;4942567;28;20031;-39
2023/04/14 10:35:46;;;;;;;2.25;0.70;;;;;;;;;;4947969;28;20768;-39
2023/04/14 10:38:12;;;;;;;1.45;0.30;;;;;;;;;;4962664;28;20054;-39
2023/04/14 10:40:50;;;;;;;2.55;0.50;;;;;;;;;;4965502;28;20077;-39
2023/04/14 10:43:15;;;;;;;0.50;0.30;;;;;;;;;;4960613;28;20057;-39
2023/04/14 10:45:57;;;;;;;2.65;0.88;;;;;;;;;;4961386;28;20042;-39
2023/04/14 10:48:31;;;;;;;0.90;0.52;;;;;;;;;;4964591;28;20435;-39
2023/04/14 10:51:32;;;;;;;1.58;0.50;;;;;;;;;;4961493;28;20039;-39
2023/04/14 10:54:02;;;;;;;0.63;0.30;;;;;;;;;;4961272;28;20042;-39
2023/04/14 10:56:28;;;;;;;1.13;0.57;;;;;;;;;;4963877;28;20043;-39
2023/04/14 10:58:55;;;;;;;1.58;0.50;;;;;;;;;;4965481;28;20685;-40
2023/04/14 11:01:31;;;;;;;1.25;0.55;;;;;;;;;;4967235;28;20055;-39
2023/04/14 11:04:09;;;;;;;2.53;0.60;;;;;;;;;;4969869;28;20562;-39
2023/04/14 11:06:49;;;;;;;1.52;0.50;;;;;;;;;;4960481;28;20043;-39
2023/04/14 11:09:44;;;;;;;4.22;0.63;;;;;;;;;;4963831;28;20074;-39
2023/04/14 11:12:23;;;;;;;1.08;0.43;;;;;;;;;;4947933;28;20054;-39
2023/04/14 11:14:54;;;;;;;3.10;0.40;;;;;;;;;;4951393;28;20050;-39
2023/04/14 11:17:21;;;;;;;2.72;0.50;;;;;;;;;;4948920;28;20082;-39
2023/04/14 11:19:46;;;;;;;1.00;0.57;;;;;;;;;;4948529;28;20062;-40
2023/04/14 11:22:11;;;;;;;4.70;0.63;;;;;;;;;;4947719;28;20445;-39
2023/04/14 11:24:38;;;;;;;0.55;0.40;;;;;;;;;;4947766;28;20031;-39
2023/04/14 11:27:03;;;;;;;0.95;0.40;;;;;;;;;;4948153;28;20110;-39
2023/04/14 11:29:29;;;;;;;0.45;0.25;;;;;;;;;;4948752;28;20043;-40
2023/04/14 11:32:04;;;;;;;0.40;0.40;;;;;;;;;;4943475;28;20051;-39
2023/04/14 11:34:30;;;;;;;1.63;0.30;;;;;;;;;;4946747;28;20077;-40
2023/04/14 11:36:55;;;;;;;1.15;0.40;;;;;;;;;;4946512;28;20421;-40
2023/04/14 11:39:22;;;;;;;2.25;0.55;;;;;;;;;;4947839;28;20102;-39
2023/04/14 11:41:50;;;;;;;6.32;0.80;;;;;;;;;;4948774;28;20040;-39
2023/04/14 11:44:19;;;;;;;0.65;0.30;;;;;;;;;;4949587;28;20027;-39
2023/04/14 11:46:45;;;;;;;1.65;0.40;;;;;;;;;;4947232;28;20035;-39
2023/04/14 11:49:11;;;;;;;1.13;0.40;;;;;;;;;;4948408;28;20035;-39
2023/04/14 11:51:37;;;;;;;1.52;0.50;;;;;;;;;;4949171;28;20035;-39
2023/04/14 11:54:03;;;;;;;1.67;0.50;;;;;;;;;;4950132;28;20030;-39
2023/04/14 11:56:30;;;;;;;0.40;0.40;;;;;;;;;;4938954;28;20154;-39
2023/04/14 11:59:03;;;;;;;0.57;0.30;;;;;;;;;;4948239;28;20447;-39
2023/04/14 12:01:29;;;;;;;1.15;0.50;;;;;;;;;;4956242;28;20051;-39
2023/04/14 12:03:56;;;;;;;1.77;0.50;;;;;;;;;;4955088;28;20038;-40
2023/04/14 12:06:22;;;;;;;0.68;0.43;;;;;;;;;;4958415;28;20062;-39
2023/04/14 12:08:51;;;;;;;0.68;0.50;;;;;;;;;;4966302;28;20039;-39
2023/04/14 12:11:16;;;;;;;0.90;0.50;;;;;;;;;;4965948;28;20175;-39
2023/04/14 12:13:43;;;;;;;2.83;0.45;;;;;;;;;;4960005;28;20046;-39
2023/04/14 12:16:10;;;;;;;1.88;0.60;;;;;;;;;;4964392;28;20034;-40
2023/04/14 12:18:36;;;;;;;1.02;0.70;;;;;;;;;;4966744;28;20082;-39
2023/04/14 12:21:03;;;;;;;2.65;0.40;;;;;;;;;;4965371;28;20042;-40
2023/04/14 12:23:28;;;;;;;0.88;0.45;;;;;;;;;;4965081;28;20033;-43
2023/04/14 12:25:54;;;;;;;0.50;0.50;;;;;;;;;;4967234;28;20042;-39
2023/04/14 12:28:26;;;;;;;2.75;0.43;;;;;;;;;;4963660;28;20049;-40
2023/04/14 12:30:55;;;;;;;1.88;0.50;;;;;;;;;;4961416;28;20055;-40
2023/04/14 12:33:29;;;;;;;1.45;0.57;;;;;;;;;;4964011;28;20375;-39
2023/04/14 12:36:04;;;;;;;1.33;0.40;;;;;;;;;;4967750;28;20050;-39
2023/04/14 12:38:31;;;;;;;1.67;0.40;;;;;;;;;;4961456;28;20074;-39
2023/04/14 12:40:56;;;;;;;2.50;0.70;;;;;;;;;;4965264;28;20050;-40
2023/04/14 12:43:28;;;;;;;2.30;0.88;;;;;;;;;;4964686;28;20038;-39
2023/04/14 12:45:54;;;;;;;0.57;0.35;;;;;;;;;;4959710;28;20039;-39
2023/04/14 12:48:19;;;;;;;6.47;0.50;;;;;;;;;;4962736;28;20391;-40
2023/04/14 12:50:45;;;;;;;3.63;0.43;;;;;;;;;;4962996;28;20046;-39
2023/04/14 12:53:24;;;;;;;2.00;0.73;;;;;;;;;;4960237;28;20035;-39
2023/04/14 12:56:07;;;;;;;0.47;0.47;;;;;;;;;;4961192;28;20039;-39
2023/04/14 12:58:36;;;;;;;2.22;0.70;;;;;;;;;;4966402;28;20030;-40
2023/04/14 13:01:04;;;;;;;1.95;0.60;;;;;;;;;;4964285;28;20150;-39
2023/04/14 13:03:40;;;;;;;1.13;0.40;;;;;;;;;;4963203;28;20033;-39
2023/04/14 13:06:07;;;;;;;0.68;0.50;;;;;;;;;;4964582;28;20043;-40
2023/04/14 13:08:32;;;;;;;4.00;0.52;;;;;;;;;;4968531;28;20467;-39
2023/04/14 13:10:58;;;;;;;3.20;0.47;;;;;;;;;;4967868;28;20050;-39
2023/04/14 13:13:24;;;;;;;1.45;0.82;;;;;;;;;;4964100;28;21185;-40
2023/04/14 13:15:49;;;;;;;2.22;0.55;;;;;;;;;;4959013;28;20388;-39
2023/04/14 13:18:16;;;;;;;2.10;0.70;;;;;;;;;;4961411;28;20057;-40
2023/04/14 13:20:41;;;;;;;1.92;0.80;;;;;;;;;;4960597;28;20042;-39
2023/04/14 13:23:06;;;;;;;1.20;0.63;;;;;;;;;;4959792;28;20019;-39
2023/04/14 13:25:32;;;;;;;1.95;0.70;;;;;;;;;;4962256;28;20078;-40
2023/04/14 13:27:57;;;;;;;1.33;0.55;;;;;;;;;;4956792;28;20031;-39
2023/04/14 13:30:22;;;;;;;17.60;1.15;;;;;;;;;;4959438;28;20061;-42
2023/04/14 13:32:48;;;;;;;6.90;0.80;;;;;;;;;;4937249;28;20503;-39
2023/04/14 13:35:13;;;;;;;8.05;1.00;;;;;;;;;;4946541;28;20043;-38
2023/04/14 13:37:38;;;;;;;7.10;0.70;;;;;;;;;;4963427;28;20058;-40
2023/04/14 13:40:05;;;;;;;2.42;0.88;;;;;;;;;;4963666;28;20049;-40
2023/04/14 13:42:30;;;;;;;4.45;1.25;;;;;;;;;;4965072;28;20019;-39
2023/04/14 13:44:56;;;;;;;6.35;0.95;;;;;;;;;;4968222;28;20031;-39
2023/04/14 13:47:21;;;;;;;5.82;0.93;;;;;;;;;;4962515;28;20038;-39
2023/04/14 13:49:46;;;;;;;2.00;1.13;;;;;;;;;;4964050;28;20027;-39
2023/04/14 13:52:12;;;;;;;3.20;1.10;;;;;;;;;;4965182;28;20523;-40
2023/04/14 13:54:37;;;;;;;6.05;1.65;;;;;;;;;;4967128;28;20030;-40
2023/04/14 13:57:03;;;;;;;4.07;1.08;;;;;;;;;;4963162;28;20133;-39
2023/04/14 13:59:28;;;;;;;7.45;1.40;;;;;;;;;;4967850;28;20070;-39
2023/04/14 14:01:53;;;;;;;5.40;1.10;;;;;;;;;;4951984;28;20102;-39
2023/04/14 14:04:19;;;;;;;1.40;0.63;;;;;;;;;;4948786;28;20034;-40
2023/04/14 14:06:44;;;;;;;8.38;0.82;;;;;;;;;;4962613;28;20047;-42
2023/04/14 14:09:10;;;;;;;8.95;1.20;;;;;;;;;;4965793;28;20113;-39
2023/04/14 14:11:35;;;;;;;2.10;0.90;;;;;;;;;;4964221;28;22874;-41
2023/04/14 14:14:00;;;;;;;2.75;1.27;;;;;;;;;;4964069;28;20034;-39
2023/04/14 14:16:26;;;;;;;2.20;1.00;;;;;;;;;;4963697;28;20061;-44
2023/04/14 14:18:52;;;;;;;3.10;1.30;;;;;;;;;;4967998;28;20039;-39
2023/04/14 14:21:17;;;;;;;3.38;1.15;;;;;;;;;;4967985;28;20054;-39
2023/04/14 14:23:43;;;;;;;2.13;0.90;;;;;;;;;;4967302;28;20436;-40
2023/04/14 14:26:12;;;;;;;2.88;1.05;;;;;;;;;;4965095;28;20535;-39
2023/04/14 14:28:37;;;;;;;4.45;1.27;;;;;;;;;;4964401;28;20387;-39
2023/04/14 14:31:03;;;;;;;3.80;1.23;;;;;;;;;;4964824;28;20038;-39
2023/04/14 14:33:28;;;;;;;6.15;1.00;;;;;;;;;;4966779;28;20027;-39
2023/04/14 14:35:53;;;;;;;3.53;1.20;;;;;;;;;;4964214;28;20126;-39
2023/04/14 14:38:19;;;;;;;4.32;0.82;;;;;;;;;;4967530;28;20034;-39
2023/04/14 14:40:44;;;;;;;8.73;1.30;;;;;;;;;;4963375;28;20487;-40
2023/04/14 14:43:10;;;;;;;5.07;0.98;;;;;;;;;;4965954;28;20068;-39
2023/04/14 14:45:35;;;;;;;6.45;1.60;;;;;;;;;;4965352;28;20070;-40